Numa, Iowa
Current Conditions -  °F | °C
As of 5:15 AM on Saturday 25 Oct 2014 (Local Time) from KTVK Reporting Station
Haze Haze  
Wind Chill: 46°   Ceiling: Unl
Heat Index: 48°   Visibility: 1.2mi
Dew Point: 48°   Wind: 6mph
Humidity: 100%   Direction: 290°WNW
Pressure: 30.01"   Gusts: NA
Location:  40.71°N, 92.9234°W
Report Text: KTVK 251015Z AUTO 29005KT 1 1/4SM BR CLR 09/09 A3001 RMK AO2
Loading
Personal Weather Stations






























Interactive Weather Map
Tropical Storm Tracking
New forecast layout! Learn more

10-Day Weather Forecast

Advertisements
Track Severe Weather on mobile